Time;durP1;ratioP1;P1;durP2;ratioP2;P2;SDS_P1;SDS_P2;PMS_P1;PMS_P2;Temp;Humidity;BMP_temperature;BMP_pressure;BME280_temperature;BME280_humidity;BME280_pressure;Samples;Min_cycle;Max_cycle;Signal;HPM_P1;HPM_P2
2024/01/03 00:01:37;;;;;;;4.07;1.50;;;;;;;;;;5087952;28;20215;-47
2024/01/03 00:04:05;;;;;;;4.20;2.03;;;;;;;;;;5087593;28;20227;-47
2024/01/03 00:06:36;;;;;;;5.43;1.50;;;;;;;;;;5087960;28;20249;-48
2024/01/03 00:09:02;;;;;;;6.50;1.90;;;;;;;;;;5087702;28;20195;-48
2024/01/03 00:11:30;;;;;;;4.43;1.63;;;;;;;;;;5087186;28;20776;-48
2024/01/03 00:14:07;;;;;;;4.03;1.37;;;;;;;;;;5087378;28;20203;-48
2024/01/03 00:16:37;;;;;;;3.53;1.50;;;;;;;;;;5087743;28;20636;-48
2024/01/03 00:19:04;;;;;;;3.93;1.83;;;;;;;;;;5087400;28;20210;-48
2024/01/03 00:21:33;;;;;;;4.93;1.90;;;;;;;;;;5084392;28;20199;-48
2024/01/03 00:24:01;;;;;;;4.27;1.67;;;;;;;;;;5073696;28;20207;-48
2024/01/03 00:26:28;;;;;;;3.83;1.43;;;;;;;;;;5074182;28;20689;-48
2024/01/03 00:28:54;;;;;;;7.87;2.00;;;;;;;;;;5073887;28;20265;-48
2024/01/03 00:31:36;;;;;;;5.77;1.80;;;;;;;;;;5074286;28;20247;-47
2024/01/03 00:34:02;;;;;;;5.70;1.80;;;;;;;;;;5073733;28;20291;-48
2024/01/03 00:36:28;;;;;;;4.53;1.57;;;;;;;;;;5073403;28;20734;-47
2024/01/03 00:38:56;;;;;;;4.33;1.70;;;;;;;;;;5073359;28;20658;-47
2024/01/03 00:41:22;;;;;;;7.00;2.10;;;;;;;;;;5074015;28;20238;-47
2024/01/03 00:43:48;;;;;;;5.20;1.93;;;;;;;;;;5073913;28;20216;-47
2024/01/03 00:46:14;;;;;;;7.23;2.10;;;;;;;;;;5073702;28;20204;-47
2024/01/03 00:48:40;;;;;;;4.97;1.80;;;;;;;;;;5073015;28;20286;-47
2024/01/03 00:51:07;;;;;;;6.87;1.90;;;;;;;;;;5073394;28;20233;-47
2024/01/03 00:53:33;;;;;;;6.13;2.20;;;;;;;;;;5073454;28;20187;-48
2024/01/03 00:56:00;;;;;;;6.97;2.03;;;;;;;;;;5073377;28;20195;-48
2024/01/03 00:58:27;;;;;;;5.10;2.40;;;;;;;;;;5073621;28;20208;-48
2024/01/03 01:00:53;;;;;;;2.93;1.73;;;;;;;;;;5072533;28;20579;-48
2024/01/03 01:03:19;;;;;;;6.00;1.90;;;;;;;;;;5073282;28;20195;-47
2024/01/03 01:05:45;;;;;;;6.50;2.07;;;;;;;;;;5073380;28;20202;-47
2024/01/03 01:08:11;;;;;;;5.03;1.80;;;;;;;;;;5073203;28;20536;-48
2024/01/03 01:10:37;;;;;;;4.60;2.20;;;;;;;;;;5072979;28;20249;-48
2024/01/03 01:13:04;;;;;;;7.90;1.80;;;;;;;;;;5071841;28;20257;-48
2024/01/03 01:15:30;;;;;;;6.17;2.23;;;;;;;;;;5072538;28;20207;-48
2024/01/03 01:17:56;;;;;;;9.87;2.40;;;;;;;;;;5072152;28;20223;-48
2024/01/03 01:20:22;;;;;;;5.63;1.93;;;;;;;;;;5072456;28;20223;-48
2024/01/03 01:22:48;;;;;;;6.77;2.60;;;;;;;;;;5072637;28;20564;-48
2024/01/03 01:25:15;;;;;;;5.07;2.00;;;;;;;;;;5072287;28;20191;-48
2024/01/03 01:27:41;;;;;;;6.63;2.40;;;;;;;;;;5067982;28;20210;-49
2024/01/03 01:30:09;;;;;;;6.57;2.17;;;;;;;;;;5072483;28;20227;-49
2024/01/03 01:32:35;;;;;;;7.13;2.13;;;;;;;;;;5063800;28;20192;-49
2024/01/03 01:35:01;;;;;;;8.53;2.37;;;;;;;;;;5051792;28;20206;-49
2024/01/03 01:37:27;;;;;;;6.67;2.33;;;;;;;;;;5052809;28;20687;-49
2024/01/03 01:39:53;;;;;;;8.23;3.57;;;;;;;;;;5052468;28;20200;-49
2024/01/03 01:42:19;;;;;;;7.90;2.57;;;;;;;;;;5052680;28;20218;-48
2024/01/03 01:44:45;;;;;;;7.00;2.50;;;;;;;;;;5052540;28;20667;-47
2024/01/03 01:47:14;;;;;;;7.77;2.33;;;;;;;;;;5052400;28;20185;-48
2024/01/03 01:49:40;;;;;;;12.13;2.70;;;;;;;;;;5052335;28;20208;-48
2024/01/03 01:52:06;;;;;;;5.50;2.10;;;;;;;;;;5052220;28;20255;-49
2024/01/03 01:54:33;;;;;;;9.83;2.20;;;;;;;;;;5052444;28;20201;-48
2024/01/03 01:56:59;;;;;;;6.60;2.10;;;;;;;;;;5052296;28;20210;-48
2024/01/03 01:59:25;;;;;;;6.57;2.00;;;;;;;;;;5052259;28;20203;-48
2024/01/03 02:01:51;;;;;;;7.57;2.30;;;;;;;;;;5052085;28;20201;-49
2024/01/03 02:04:19;;;;;;;7.90;2.20;;;;;;;;;;5052172;28;20238;-49
2024/01/03 02:06:45;;;;;;;5.97;2.20;;;;;;;;;;5052219;28;20204;-49
2024/01/03 02:09:11;;;;;;;6.57;1.97;;;;;;;;;;5051872;28;20270;-48
2024/01/03 02:11:43;;;;;;;7.03;2.07;;;;;;;;;;5051712;28;20710;-48
2024/01/03 02:14:09;;;;;;;6.97;1.87;;;;;;;;;;5051896;28;20758;-48
2024/01/03 02:16:35;;;;;;;7.57;1.93;;;;;;;;;;5051800;28;20220;-49
2024/01/03 02:19:04;;;;;;;7.50;2.10;;;;;;;;;;5051746;28;20502;-47
2024/01/03 02:21:31;;;;;;;5.67;2.10;;;;;;;;;;5052041;28;20196;-47
2024/01/03 02:23:57;;;;;;;7.67;2.10;;;;;;;;;;5051760;28;20214;-47
2024/01/03 02:26:23;;;;;;;9.67;2.53;;;;;;;;;;5051846;28;20204;-48
2024/01/03 02:28:49;;;;;;;7.73;2.67;;;;;;;;;;5051701;28;20196;-48
2024/01/03 02:31:15;;;;;;;6.40;2.70;;;;;;;;;;5051669;28;20231;-48
2024/01/03 02:33:41;;;;;;;10.47;2.73;;;;;;;;;;5051636;28;20592;-48
2024/01/03 02:36:08;;;;;;;7.17;2.43;;;;;;;;;;5051490;28;20220;-48
2024/01/03 02:38:35;;;;;;;7.57;2.00;;;;;;;;;;5051562;28;20203;-48
2024/01/03 02:41:01;;;;;;;9.67;2.43;;;;;;;;;;5051550;28;20250;-48
2024/01/03 02:43:27;;;;;;;7.43;2.27;;;;;;;;;;5051628;28;20192;-48
2024/01/03 02:45:53;;;;;;;8.33;2.23;;;;;;;;;;5051133;28;20592;-48
2024/01/03 02:48:19;;;;;;;7.07;2.20;;;;;;;;;;5051156;28;20220;-48
2024/01/03 02:50:48;;;;;;;6.53;2.20;;;;;;;;;;5051502;28;20263;-48
2024/01/03 02:53:14;;;;;;;9.57;2.33;;;;;;;;;;5051413;28;20201;-47
2024/01/03 02:55:41;;;;;;;10.30;2.53;;;;;;;;;;5051332;28;20200;-48
2024/01/03 02:58:07;;;;;;;6.53;2.80;;;;;;;;;;5051126;28;20207;-48
2024/01/03 03:00:33;;;;;;;8.07;2.60;;;;;;;;;;5051152;28;20204;-47
2024/01/03 03:02:59;;;;;;;7.00;2.23;;;;;;;;;;5051239;28;20203;-47
2024/01/03 03:05:25;;;;;;;10.53;2.63;;;;;;;;;;5051366;28;20200;-47
2024/01/03 03:07:51;;;;;;;10.47;2.53;;;;;;;;;;5051152;28;20249;-47
2024/01/03 03:10:17;;;;;;;9.80;2.40;;;;;;;;;;5050933;28;20267;-47
2024/01/03 03:12:44;;;;;;;7.13;2.00;;;;;;;;;;5051184;28;20232;-47
2024/01/03 03:15:10;;;;;;;9.60;2.43;;;;;;;;;;5051044;28;20231;-47
2024/01/03 03:17:36;;;;;;;7.10;2.20;;;;;;;;;;5050942;28;20240;-47
2024/01/03 03:20:02;;;;;;;11.70;2.63;;;;;;;;;;5051032;28;20222;-47
2024/01/03 03:22:28;;;;;;;6.83;2.27;;;;;;;;;;5051166;28;20200;-47
2024/01/03 03:24:54;;;;;;;11.17;2.50;;;;;;;;;;5051053;28;20198;-47
2024/01/03 03:27:21;;;;;;;7.40;2.10;;;;;;;;;;5050916;28;20715;-47
2024/01/03 03:29:49;;;;;;;6.57;2.30;;;;;;;;;;5051117;28;20216;-47
2024/01/03 03:32:15;;;;;;;11.70;2.50;;;;;;;;;;5051039;28;20295;-47
2024/01/03 03:34:41;;;;;;;6.80;2.03;;;;;;;;;;5050901;28;20196;-47
2024/01/03 03:37:07;;;;;;;5.43;2.10;;;;;;;;;;5050739;28;20196;-47
2024/01/03 03:39:33;;;;;;;9.60;2.83;;;;;;;;;;5050906;28;20200;-47
2024/01/03 03:42:01;;;;;;;6.20;2.40;;;;;;;;;;5050889;28;20694;-47
2024/01/03 03:44:27;;;;;;;10.00;2.13;;;;;;;;;;5050870;28;20227;-47
2024/01/03 03:46:54;;;;;;;9.83;2.30;;;;;;;;;;5050946;28;20317;-47
2024/01/03 03:49:20;;;;;;;9.70;2.57;;;;;;;;;;5050559;28;20192;-47
2024/01/03 03:51:46;;;;;;;8.30;2.60;;;;;;;;;;5050858;28;20274;-47
2024/01/03 03:54:12;;;;;;;9.43;2.47;;;;;;;;;;5051088;28;20623;-47
2024/01/03 03:56:38;;;;;;;9.30;2.40;;;;;;;;;;5050963;28;20207;-46
2024/01/03 03:59:04;;;;;;;8.70;2.43;;;;;;;;;;5054339;28;20204;-47
2024/01/03 04:01:30;;;;;;;13.17;2.57;;;;;;;;;;5054538;28;20563;-47
2024/01/03 04:03:57;;;;;;;11.03;2.93;;;;;;;;;;5054493;28;20196;-46
2024/01/03 04:06:23;;;;;;;6.83;2.23;;;;;;;;;;5054223;28;20204;-47
2024/01/03 04:08:50;;;;;;;9.13;2.83;;;;;;;;;;5054274;28;20207;-46
2024/01/03 04:11:16;;;;;;;7.70;2.37;;;;;;;;;;5054159;28;20231;-47
2024/01/03 04:13:42;;;;;;;9.03;2.23;;;;;;;;;;5054254;28;20211;-47
2024/01/03 04:16:08;;;;;;;8.27;2.50;;;;;;;;;;5053907;28;20303;-46
2024/01/03 04:18:35;;;;;;;10.13;2.83;;;;;;;;;;5054171;28;20200;-46
2024/01/03 04:21:06;;;;;;;8.57;2.43;;;;;;;;;;5054293;28;20199;-46
2024/01/03 04:23:33;;;;;;;8.13;2.83;;;;;;;;;;5054257;28;20210;-47
2024/01/03 04:26:00;;;;;;;10.97;2.63;;;;;;;;;;5054204;28;20208;-47
2024/01/03 04:28:26;;;;;;;13.40;3.10;;;;;;;;;;5054040;28;20283;-47
2024/01/03 04:30:52;;;;;;;11.70;2.57;;;;;;;;;;5053930;28;20706;-47
2024/01/03 04:33:18;;;;;;;7.93;2.73;;;;;;;;;;5053846;28;20196;-47
2024/01/03 04:35:44;;;;;;;11.63;2.90;;;;;;;;;;5054294;28;20702;-46
2024/01/03 04:38:11;;;;;;;7.80;2.30;;;;;;;;;;5053745;28;20204;-47
2024/01/03 04:40:37;;;;;;;7.43;2.37;;;;;;;;;;5053835;28;20196;-47
2024/01/03 04:43:03;;;;;;;4.70;2.07;;;;;;;;;;5053838;28;20696;-47
2024/01/03 04:45:29;;;;;;;8.93;2.30;;;;;;;;;;5053748;28;20266;-47
2024/01/03 04:47:55;;;;;;;4.50;2.00;;;;;;;;;;5053586;28;20195;-47
2024/01/03 04:50:21;;;;;;;10.60;2.47;;;;;;;;;;5053414;28;20223;-47
2024/01/03 04:52:47;;;;;;;7.83;2.43;;;;;;;;;;5053624;28;20193;-47
2024/01/03 04:55:15;;;;;;;7.07;2.40;;;;;;;;;;5053546;28;20223;-47
2024/01/03 04:57:41;;;;;;;9.37;2.50;;;;;;;;;;5053607;28;20200;-47
2024/01/03 05:00:07;;;;;;;10.03;2.50;;;;;;;;;;5053525;28;20257;-47
2024/01/03 05:02:33;;;;;;;8.53;2.37;;;;;;;;;;5053140;28;20723;-46
2024/01/03 05:04:59;;;;;;;5.33;1.93;;;;;;;;;;5053430;28;20200;-47
2024/01/03 05:07:25;;;;;;;10.10;2.60;;;;;;;;;;5053035;28;20643;-47
2024/01/03 05:09:51;;;;;;;6.77;1.93;;;;;;;;;;5053044;28;20207;-47
2024/01/03 05:12:18;;;;;;;5.00;2.07;;;;;;;;;;5053158;28;20228;-46
2024/01/03 05:14:44;;;;;;;8.13;2.53;;;;;;;;;;5053328;28;20207;-47
2024/01/03 05:17:10;;;;;;;9.47;3.03;;;;;;;;;;5052800;28;20224;-46
2024/01/03 05:19:36;;;;;;;9.73;2.60;;;;;;;;;;5053132;28;20220;-47
2024/01/03 05:22:02;;;;;;;5.97;2.27;;;;;;;;;;5053044;28;20197;-47
2024/01/03 05:24:28;;;;;;;11.13;2.57;;;;;;;;;;5053211;28;20196;-47
2024/01/03 05:26:54;;;;;;;5.63;2.00;;;;;;;;;;5053241;28;20196;-47
2024/01/03 05:29:22;;;;;;;7.47;2.50;;;;;;;;;;5052738;28;20203;-47
2024/01/03 05:31:48;;;;;;;6.63;2.40;;;;;;;;;;5052615;28;20224;-47
2024/01/03 05:34:15;;;;;;;8.87;2.67;;;;;;;;;;5052857;28;20207;-47
2024/01/03 05:36:41;;;;;;;8.33;2.70;;;;;;;;;;5052980;28;20192;-47
2024/01/03 05:39:07;;;;;;;8.53;2.50;;;;;;;;;;5052482;28;20583;-47
2024/01/03 05:41:33;;;;;;;9.87;2.50;;;;;;;;;;5052652;28;20212;-47
2024/01/03 05:43:59;;;;;;;9.30;2.73;;;;;;;;;;5052650;28;20214;-47
2024/01/03 05:46:27;;;;;;;9.23;2.70;;;;;;;;;;5052336;28;20253;-47
2024/01/03 05:48:53;;;;;;;8.00;2.30;;;;;;;;;;5052464;28;20231;-47
2024/01/03 05:51:20;;;;;;;6.97;2.13;;;;;;;;;;5052214;28;20224;-47
2024/01/03 05:53:49;;;;;;;6.57;1.97;;;;;;;;;;5052624;28;20204;-47
2024/01/03 05:56:15;;;;;;;7.20;2.23;;;;;;;;;;5052447;28;20204;-47
2024/01/03 05:58:42;;;;;;;11.00;3.47;;;;;;;;;;5052371;28;20196;-47
2024/01/03 06:01:08;;;;;;;7.67;2.37;;;;;;;;;;5052216;28;20211;-47
2024/01/03 06:03:35;;;;;;;10.63;3.47;;;;;;;;;;5052205;28;20208;-47
2024/01/03 06:06:01;;;;;;;6.73;2.23;;;;;;;;;;5052239;28;20219;-47
2024/01/03 06:08:27;;;;;;;6.83;2.40;;;;;;;;;;5052061;28;20192;-47
2024/01/03 06:10:53;;;;;;;7.03;2.30;;;;;;;;;;5051878;28;20767;-47
2024/01/03 06:13:19;;;;;;;8.37;2.63;;;;;;;;;;5051879;28;20287;-47
2024/01/03 06:15:45;;;;;;;6.00;2.47;;;;;;;;;;5052091;28;20559;-47
2024/01/03 06:18:11;;;;;;;6.87;2.47;;;;;;;;;;5051768;28;20243;-48
2024/01/03 06:20:39;;;;;;;8.10;2.80;;;;;;;;;;5051365;28;20206;-48
2024/01/03 06:23:05;;;;;;;9.80;2.67;;;;;;;;;;5051751;28;20685;-47
2024/01/03 06:25:31;;;;;;;6.20;2.20;;;;;;;;;;5051723;28;20279;-47
2024/01/03 06:27:58;;;;;;;8.13;2.60;;;;;;;;;;5051985;28;20196;-47
2024/01/03 06:30:24;;;;;;;6.87;2.30;;;;;;;;;;5051565;28;20201;-47
2024/01/03 06:32:50;;;;;;;7.20;2.17;;;;;;;;;;5051663;28;20211;-48
2024/01/03 06:35:16;;;;;;;6.43;2.13;;;;;;;;;;5051742;28;20200;-48
2024/01/03 06:37:43;;;;;;;10.30;4.07;;;;;;;;;;5051568;28;20673;-47
2024/01/03 06:40:09;;;;;;;7.87;2.60;;;;;;;;;;5051511;28;20234;-47
2024/01/03 06:42:35;;;;;;;6.60;1.90;;;;;;;;;;5051362;28;20242;-47
2024/01/03 06:45:01;;;;;;;7.60;2.80;;;;;;;;;;5051572;28;20200;-47
2024/01/03 06:47:27;;;;;;;7.13;2.23;;;;;;;;;;5051338;28;20274;-48
2024/01/03 06:49:53;;;;;;;7.03;2.53;;;;;;;;;;5051398;28;20230;-47
2024/01/03 06:52:19;;;;;;;8.70;3.00;;;;;;;;;;5051227;28;20232;-48
2024/01/03 06:54:47;;;;;;;5.10;1.93;;;;;;;;;;5051439;28;20200;-47
2024/01/03 06:57:12;;;;;;;6.00;2.10;;;;;;;;;;5051378;28;20196;-48
2024/01/03 06:59:39;;;;;;;4.73;1.77;;;;;;;;;;5051321;28;20223;-47
2024/01/03 07:02:05;;;;;;;5.17;1.67;;;;;;;;;;5051071;28;20192;-47
2024/01/03 07:04:31;;;;;;;3.17;1.40;;;;;;;;;;5051294;28;20287;-49
2024/01/03 07:06:57;;;;;;;5.43;1.70;;;;;;;;;;5051270;28;20231;-47
2024/01/03 07:09:23;;;;;;;3.43;1.40;;;;;;;;;;5050975;28;20204;-48
2024/01/03 07:11:50;;;;;;;6.43;2.20;;;;;;;;;;5050919;28;20231;-48
2024/01/03 07:14:16;;;;;;;5.30;2.00;;;;;;;;;;5050830;28;20303;-48
2024/01/03 07:16:42;;;;;;;4.83;2.00;;;;;;;;;;5050828;28;20302;-48
2024/01/03 07:19:08;;;;;;;6.67;2.30;;;;;;;;;;5051136;28;20670;-48
2024/01/03 07:21:34;;;;;;;9.03;2.77;;;;;;;;;;5050902;28;20682;-48
2024/01/03 07:24:00;;;;;;;5.20;2.33;;;;;;;;;;5051154;28;20295;-47
2024/01/03 07:26:26;;;;;;;8.60;2.57;;;;;;;;;;5050940;28;20279;-48
2024/01/03 07:28:53;;;;;;;10.53;2.67;;;;;;;;;;5050955;28;20617;-48
2024/01/03 07:31:19;;;;;;;8.07;2.47;;;;;;;;;;5050812;28;20228;-48
2024/01/03 07:33:45;;;;;;;8.27;2.27;;;;;;;;;;5054862;28;20204;-48
2024/01/03 07:36:11;;;;;;;10.67;2.73;;;;;;;;;;5054976;28;20200;-47
2024/01/03 07:38:37;;;;;;;8.53;2.57;;;;;;;;;;5054603;28;20211;-48
2024/01/03 07:41:03;;;;;;;8.50;2.60;;;;;;;;;;5054599;28;20220;-48
2024/01/03 07:43:30;;;;;;;10.70;3.43;;;;;;;;;;5054342;28;20203;-49
2024/01/03 07:45:58;;;;;;;5.97;2.40;;;;;;;;;;5054935;28;20203;-47
2024/01/03 07:48:24;;;;;;;7.10;2.40;;;;;;;;;;5054507;28;20239;-48
2024/01/03 07:50:50;;;;;;;10.53;2.60;;;;;;;;;;5054566;28;20255;-48
2024/01/03 07:53:16;;;;;;;8.30;2.60;;;;;;;;;;5054652;28;20196;-48
2024/01/03 07:55:42;;;;;;;7.47;2.50;;;;;;;;;;5054609;28;20286;-47
2024/01/03 07:58:08;;;;;;;11.47;3.20;;;;;;;;;;5054468;28;20200;-48
2024/01/03 08:00:34;;;;;;;9.20;2.83;;;;;;;;;;5053143;28;20649;-48
2024/01/03 08:03:01;;;;;;;12.50;2.57;;;;;;;;;;5054494;28;20247;-48
2024/01/03 08:05:27;;;;;;;10.60;2.73;;;;;;;;;;5054377;28;20610;-48
2024/01/03 08:07:53;;;;;;;6.57;2.80;;;;;;;;;;5054479;28;20203;-48
2024/01/03 08:10:19;;;;;;;10.73;2.40;;;;;;;;;;5053921;28;20680;-48
2024/01/03 08:12:45;;;;;;;9.00;2.50;;;;;;;;;;5054406;28;20291;-47
2024/01/03 08:15:12;;;;;;;6.47;2.80;;;;;;;;;;5054183;28;20208;-47
2024/01/03 08:17:38;;;;;;;6.17;2.27;;;;;;;;;;5054405;28;20273;-47
2024/01/03 08:20:06;;;;;;;9.17;2.97;;;;;;;;;;5054134;28;20722;-47
2024/01/03 08:22:32;;;;;;;6.97;2.23;;;;;;;;;;5054134;28;20197;-47
2024/01/03 08:24:58;;;;;;;3.33;2.20;;;;;;;;;;5054101;28;20253;-48
2024/01/03 08:27:24;;;;;;;7.73;2.90;;;;;;;;;;5053812;28;20197;-48
2024/01/03 08:29:51;;;;;;;6.33;2.60;;;;;;;;;;5053984;28;20200;-48
2024/01/03 08:32:17;;;;;;;8.37;2.67;;;;;;;;;;5053806;28;20224;-48
2024/01/03 08:34:45;;;;;;;6.23;2.43;;;;;;;;;;5053889;28;20261;-48
2024/01/03 08:37:13;;;;;;;6.73;2.10;;;;;;;;;;5053927;28;20211;-47
2024/01/03 08:39:39;;;;;;;3.87;1.90;;;;;;;;;;5053507;28;20559;-48
2024/01/03 08:42:05;;;;;;;7.63;2.57;;;;;;;;;;5053715;28;20203;-48
2024/01/03 08:44:31;;;;;;;7.93;2.20;;;;;;;;;;5053210;28;20577;-47
2024/01/03 08:46:58;;;;;;;7.13;2.20;;;;;;;;;;5053925;28;20250;-47
2024/01/03 08:49:24;;;;;;;6.37;2.40;;;;;;;;;;5053412;28;20666;-47
2024/01/03 08:51:50;;;;;;;6.83;2.10;;;;;;;;;;5053503;28;20235;-48
2024/01/03 08:54:17;;;;;;;5.87;2.27;;;;;;;;;;5053679;28;20211;-47
2024/01/03 08:56:43;;;;;;;4.70;1.80;;;;;;;;;;5053563;28;20634;-47
2024/01/03 08:59:09;;;;;;;5.80;2.10;;;;;;;;;;5053526;28;20196;-47
2024/01/03 09:01:35;;;;;;;5.77;2.00;;;;;;;;;;5053205;28;20203;-47
2024/01/03 09:04:02;;;;;;;8.10;2.97;;;;;;;;;;5053483;28;20208;-48
2024/01/03 09:06:28;;;;;;;7.63;2.57;;;;;;;;;;5053148;28;20279;-47
2024/01/03 09:08:54;;;;;;;8.47;2.83;;;;;;;;;;5053347;28;20196;-46
2024/01/03 09:11:24;;;;;;;3.40;1.80;;;;;;;;;;5052929;28;20239;-46
2024/01/03 09:13:50;;;;;;;8.07;2.50;;;;;;;;;;5053008;28;20204;-46
2024/01/03 09:16:17;;;;;;;3.03;1.50;;;;;;;;;;5053081;28;20203;-47
2024/01/03 09:18:43;;;;;;;3.20;1.70;;;;;;;;;;5052817;28;20720;-47
2024/01/03 09:21:09;;;;;;;3.87;1.83;;;;;;;;;;5053043;28;20276;-47
2024/01/03 09:23:36;;;;;;;6.17;2.03;;;;;;;;;;5052841;28;20295;-46
2024/01/03 09:26:03;;;;;;;5.57;1.80;;;;;;;;;;5052954;28;20188;-47
2024/01/03 09:28:31;;;;;;;3.80;1.70;;;;;;;;;;5052928;28;20611;-48
2024/01/03 09:30:57;;;;;;;4.13;1.97;;;;;;;;;;5052649;28;20682;-47
2024/01/03 09:33:23;;;;;;;6.77;2.00;;;;;;;;;;5052578;28;20277;-47
2024/01/03 09:35:49;;;;;;;6.53;1.80;;;;;;;;;;5052575;28;20205;-47
2024/01/03 09:38:15;;;;;;;2.27;1.70;;;;;;;;;;5052884;28;20214;-48
2024/01/03 09:40:41;;;;;;;4.33;1.70;;;;;;;;;;5052473;28;20197;-47
2024/01/03 09:43:07;;;;;;;3.70;1.60;;;;;;;;;;5052586;28;20626;-47
2024/01/03 09:45:35;;;;;;;3.23;1.73;;;;;;;;;;5052250;28;20563;-48
2024/01/03 09:48:00;;;;;;;6.07;1.90;;;;;;;;;;5052561;28;20209;-48
2024/01/03 09:50:26;;;;;;;3.03;1.77;;;;;;;;;;5052302;28;20211;-48
2024/01/03 09:52:57;;;;;;;4.47;1.63;;;;;;;;;;5052404;28;20192;-49
2024/01/03 09:55:23;;;;;;;5.80;2.20;;;;;;;;;;5051415;28;20192;-50
2024/01/03 09:57:50;;;;;;;6.37;1.80;;;;;;;;;;5052218;28;20208;-47
2024/01/03 10:00:16;;;;;;;4.70;2.47;;;;;;;;;;5052482;28;20200;-46
2024/01/03 10:02:47;;;;;;;4.80;2.17;;;;;;;;;;5052294;28;20545;-47
2024/01/03 10:05:18;;;;;;;5.03;1.97;;;;;;;;;;5052634;28;20287;-47
2024/01/03 10:07:44;;;;;;;3.40;1.70;;;;;;;;;;5052466;28;20227;-47
2024/01/03 10:10:10;;;;;;;3.83;1.60;;;;;;;;;;5052116;28;20733;-47
2024/01/03 10:12:36;;;;;;;5.30;1.60;;;;;;;;;;5052178;28;20228;-47
2024/01/03 10:15:15;;;;;;;3.20;1.60;;;;;;;;;;5052363;28;20287;-47
2024/01/03 10:17:43;;;;;;;3.73;2.10;;;;;;;;;;5051914;28;20230;-48
2024/01/03 10:20:23;;;;;;;6.00;1.90;;;;;;;;;;5052110;28;20204;-46
2024/01/03 10:22:49;;;;;;;3.03;1.37;;;;;;;;;;5052194;28;20238;-47
2024/01/03 10:25:16;;;;;;;4.77;1.93;;;;;;;;;;5052197;28;20230;-47
2024/01/03 10:27:42;;;;;;;3.07;1.70;;;;;;;;;;5051889;28;20204;-47
2024/01/03 10:30:15;;;;;;;4.87;1.57;;;;;;;;;;5051961;28;20204;-46
2024/01/03 10:32:41;;;;;;;4.63;2.23;;;;;;;;;;5051499;28;20269;-46
2024/01/03 10:35:15;;;;;;;2.00;1.33;;;;;;;;;;5053734;28;20192;-46
2024/01/03 10:37:41;;;;;;;3.30;1.60;;;;;;;;;;5071752;28;20230;-46
2024/01/03 10:40:08;;;;;;;3.50;1.43;;;;;;;;;;5071759;28;20256;-46
2024/01/03 10:42:34;;;;;;;3.27;1.67;;;;;;;;;;5071701;28;20196;-46
2024/01/03 10:45:00;;;;;;;2.57;1.57;;;;;;;;;;5071714;28;20317;-46
2024/01/03 10:47:26;;;;;;;6.13;1.90;;;;;;;;;;5071737;28;20219;-46
2024/01/03 10:49:52;;;;;;;3.47;1.40;;;;;;;;;;5070425;28;20725;-47
2024/01/03 10:52:22;;;;;;;3.67;1.97;;;;;;;;;;5071649;28;20228;-47
2024/01/03 10:54:50;;;;;;;4.80;1.93;;;;;;;;;;5071529;28;20222;-47
2024/01/03 10:57:18;;;;;;;2.90;1.10;;;;;;;;;;5071736;28;20276;-46
2024/01/03 10:59:49;;;;;;;3.50;1.67;;;;;;;;;;5071749;28;20205;-47
2024/01/03 11:02:21;;;;;;;3.13;1.70;;;;;;;;;;5071561;28;20287;-46
2024/01/03 11:04:54;;;;;;;2.77;1.23;;;;;;;;;;5071484;28;20211;-46
2024/01/03 11:07:24;;;;;;;2.50;1.40;;;;;;;;;;5071361;28;20199;-46
2024/01/03 11:09:50;;;;;;;3.73;1.47;;;;;;;;;;5071236;28;20678;-48
2024/01/03 11:12:16;;;;;;;3.07;1.37;;;;;;;;;;5071659;28;20232;-46
2024/01/03 11:14:44;;;;;;;4.13;1.30;;;;;;;;;;5071487;28;20249;-46
2024/01/03 11:17:10;;;;;;;4.20;1.43;;;;;;;;;;5071299;28;20242;-46
2024/01/03 11:19:38;;;;;;;2.03;1.23;;;;;;;;;;5071421;28;20202;-46
2024/01/03 11:22:05;;;;;;;3.33;1.43;;;;;;;;;;5071420;28;20188;-46
2024/01/03 11:24:52;;;;;;;2.80;1.57;;;;;;;;;;5071409;28;20207;-47
2024/01/03 11:27:21;;;;;;;2.60;1.27;;;;;;;;;;5071296;28;20268;-47
2024/01/03 11:29:51;;;;;;;2.47;1.37;;;;;;;;;;5071205;28;20256;-47
2024/01/03 11:32:26;;;;;;;3.63;1.40;;;;;;;;;;5071136;28;20227;-47
2024/01/03 11:34:52;;;;;;;3.00;1.20;;;;;;;;;;5071275;28;20676;-46
2024/01/03 11:37:39;;;;;;;2.90;1.50;;;;;;;;;;5071239;28;20191;-47
2024/01/03 11:40:06;;;;;;;4.13;1.60;;;;;;;;;;5066216;28;20560;-46
2024/01/03 11:42:35;;;;;;;2.70;1.47;;;;;;;;;;5071041;28;20195;-48
2024/01/03 11:45:02;;;;;;;4.63;1.30;;;;;;;;;;5071213;28;20257;-47
2024/01/03 11:47:29;;;;;;;5.23;1.40;;;;;;;;;;5071218;28;20196;-47
2024/01/03 11:49:56;;;;;;;4.27;1.60;;;;;;;;;;5071221;28;20199;-48
2024/01/03 11:52:22;;;;;;;4.77;1.70;;;;;;;;;;5071432;28;20659;-48
2024/01/03 11:54:49;;;;;;;2.03;1.30;;;;;;;;;;5071072;28;20195;-48
2024/01/03 11:57:15;;;;;;;5.00;1.80;;;;;;;;;;5071329;28;20530;-47
2024/01/03 11:59:43;;;;;;;6.83;1.53;;;;;;;;;;5071038;28;20287;-48
2024/01/03 12:02:12;;;;;;;4.70;1.60;;;;;;;;;;5071426;28;20306;-47
2024/01/03 12:04:41;;;;;;;5.03;2.10;;;;;;;;;;5071003;28;20246;-47
2024/01/03 12:07:07;;;;;;;5.40;2.00;;;;;;;;;;5070894;28;20241;-47
2024/01/03 12:09:34;;;;;;;3.90;1.97;;;;;;;;;;5070889;28;20209;-48
2024/01/03 12:12:00;;;;;;;7.10;2.13;;;;;;;;;;5071058;28;20249;-46
2024/01/03 12:14:29;;;;;;;4.90;1.90;;;;;;;;;;5070927;28;20188;-46
2024/01/03 12:16:57;;;;;;;3.10;1.80;;;;;;;;;;5070476;28;20228;-47
2024/01/03 12:19:23;;;;;;;3.43;2.10;;;;;;;;;;5073857;28;20204;-48
2024/01/03 12:21:56;;;;;;;4.63;1.70;;;;;;;;;;5074365;28;20253;-47
2024/01/03 12:24:22;;;;;;;6.00;2.00;;;;;;;;;;5074349;28;20369;-47
2024/01/03 12:26:49;;;;;;;4.33;1.50;;;;;;;;;;5074279;28;20622;-47
2024/01/03 12:29:15;;;;;;;4.07;2.03;;;;;;;;;;5074298;28;20649;-46
2024/01/03 12:31:41;;;;;;;4.80;2.00;;;;;;;;;;5073976;28;20273;-47
2024/01/03 12:34:11;;;;;;;5.57;1.90;;;;;;;;;;5074338;28;20227;-47
2024/01/03 12:36:55;;;;;;;4.77;1.80;;;;;;;;;;5074035;28;20283;-47
2024/01/03 12:39:21;;;;;;;4.97;1.87;;;;;;;;;;5070679;28;20191;-47
2024/01/03 12:41:47;;;;;;;4.13;2.20;;;;;;;;;;5073515;28;20206;-47
2024/01/03 12:44:13;;;;;;;4.00;2.70;;;;;;;;;;5073733;28;20199;-46
2024/01/03 12:46:39;;;;;;;5.10;3.10;;;;;;;;;;5073149;28;20195;-46
2024/01/03 12:49:05;;;;;;;4.33;1.90;;;;;;;;;;5073471;28;20194;-47
2024/01/03 12:51:33;;;;;;;6.30;2.30;;;;;;;;;;5073454;28;20223;-47
2024/01/03 12:53:59;;;;;;;5.53;2.20;;;;;;;;;;5073498;28;20195;-47
2024/01/03 12:56:25;;;;;;;4.90;2.13;;;;;;;;;;5073310;28;20211;-47
2024/01/03 12:58:51;;;;;;;5.80;1.93;;;;;;;;;;5073200;28;20572;-47
2024/01/03 13:01:17;;;;;;;2.43;1.83;;;;;;;;;;5073128;28;20241;-47
2024/01/03 13:03:43;;;;;;;4.27;1.70;;;;;;;;;;5073205;28;20223;-47
2024/01/03 13:06:09;;;;;;;3.30;2.00;;;;;;;;;;5073165;28;20188;-47
2024/01/03 13:08:36;;;;;;;3.47;1.63;;;;;;;;;;5072835;28;20218;-47
2024/01/03 13:11:02;;;;;;;3.13;1.60;;;;;;;;;;5073239;28;20606;-46
2024/01/03 13:13:28;;;;;;;2.70;1.57;;;;;;;;;;5073691;28;20210;-46
2024/01/03 13:15:54;;;;;;;5.90;1.47;;;;;;;;;;5073147;28;20196;-47
2024/01/03 13:18:20;;;;;;;5.27;1.90;;;;;;;;;;5072957;28;20301;-47
2024/01/03 13:20:46;;;;;;;4.80;1.80;;;;;;;;;;5073039;28;20203;-47
2024/01/03 13:23:12;;;;;;;3.43;1.70;;;;;;;;;;5073420;28;20287;-47
2024/01/03 13:25:39;;;;;;;5.87;1.77;;;;;;;;;;5073210;28;20195;-47
2024/01/03 13:28:06;;;;;;;3.80;1.93;;;;;;;;;;5072628;28;20219;-47
2024/01/03 13:30:32;;;;;;;5.00;1.67;;;;;;;;;;5072677;28;20576;-47
2024/01/03 13:32:58;;;;;;;4.27;1.67;;;;;;;;;;5072448;28;20230;-47
2024/01/03 13:35:24;;;;;;;5.17;1.97;;;;;;;;;;5072495;28;20207;-47
2024/01/03 13:37:50;;;;;;;6.07;2.03;;;;;;;;;;5072413;28;20253;-46
2024/01/03 13:40:16;;;;;;;3.17;1.77;;;;;;;;;;5072645;28;20191;-47
2024/01/03 13:42:43;;;;;;;4.50;2.47;;;;;;;;;;5072410;28;20211;-47
2024/01/03 13:45:11;;;;;;;4.83;2.07;;;;;;;;;;5072037;28;20200;-46
2024/01/03 13:47:37;;;;;;;6.23;1.87;;;;;;;;;;5072280;28;20199;-46
2024/01/03 13:50:03;;;;;;;4.30;2.33;;;;;;;;;;5072153;28;20665;-46
2024/01/03 13:52:29;;;;;;;6.00;2.80;;;;;;;;;;5072268;28;20231;-46
2024/01/03 13:54:55;;;;;;;6.87;2.33;;;;;;;;;;5072237;28;20218;-46
2024/01/03 13:57:21;;;;;;;6.20;2.40;;;;;;;;;;5072411;28;20203;-46
2024/01/03 13:59:49;;;;;;;5.70;2.00;;;;;;;;;;5072448;28;20303;-46
2024/01/03 14:02:15;;;;;;;5.50;2.07;;;;;;;;;;5072024;28;20696;-46
2024/01/03 14:04:41;;;;;;;4.87;2.07;;;;;;;;;;5072014;28;20551;-46
2024/01/03 14:07:07;;;;;;;4.83;2.13;;;;;;;;;;5071955;28;20283;-46
2024/01/03 14:09:33;;;;;;;6.13;2.47;;;;;;;;;;5072081;28;20204;-46
2024/01/03 14:11:59;;;;;;;8.30;2.93;;;;;;;;;;5072101;28;20428;-46
2024/01/03 14:14:26;;;;;;;4.90;3.23;;;;;;;;;;5072060;28;20242;-46
2024/01/03 14:16:54;;;;;;;8.17;2.70;;;;;;;;;;5071983;28;20226;-46
2024/01/03 14:19:20;;;;;;;5.97;2.43;;;;;;;;;;5072024;28;20235;-46
2024/01/03 14:21:49;;;;;;;6.53;2.53;;;;;;;;;;5071958;28;20215;-47
2024/01/03 14:24:16;;;;;;;7.43;2.77;;;;;;;;;;5072138;28;20204;-46
2024/01/03 14:26:42;;;;;;;6.27;2.20;;;;;;;;;;5072054;28;20249;-47
2024/01/03 14:29:09;;;;;;;6.47;2.40;;;;;;;;;;5071847;28;20196;-47
2024/01/03 14:31:35;;;;;;;8.23;2.73;;;;;;;;;;5071551;28;20227;-47
2024/01/03 14:34:02;;;;;;;8.60;2.93;;;;;;;;;;5071741;28;20623;-47
2024/01/03 14:36:28;;;;;;;8.70;3.27;;;;;;;;;;5071826;28;20196;-47
2024/01/03 14:38:55;;;;;;;8.30;2.57;;;;;;;;;;5071465;28;20204;-47